Time;durP1;ratioP1;P1;durP2;ratioP2;P2;SDS_P1;SDS_P2;PMS_P1;PMS_P2;Temp;Humidity;BMP_temperature;BMP_pressure;BME280_temperature;BME280_humidity;BME280_pressure;Samples;Min_cycle;Max_cycle;Signal;HPM_P1;HPM_P2
2023/05/04 00:00:51;;;;;;;13.02;7.55;;;6.20;99.90;;;;;;5010324;28;20919;-94
2023/05/04 00:03:17;;;;;;;12.07;7.15;;;5.60;99.90;;;;;;5011657;28;20421;-93
2023/05/04 00:05:43;;;;;;;11.43;6.78;;;5.50;99.90;;;;;;5010219;28;20417;-95
2023/05/04 00:08:08;;;;;;;12.57;7.32;;;5.60;99.90;;;;;;5010775;28;20397;-93
2023/05/04 00:10:34;;;;;;;12.63;7.23;;;5.40;99.90;;;;;;5011267;28;20405;-92
2023/05/04 00:13:00;;;;;;;11.18;6.78;;;5.50;99.90;;;;;;5011144;28;20507;-92
2023/05/04 00:15:26;;;;;;;11.73;7.50;;;5.40;99.90;;;;;;5010987;28;20397;-93
2023/05/04 00:17:53;;;;;;;12.50;7.55;;;5.10;99.90;;;;;;5010710;28;20804;-94
2023/05/04 00:20:19;;;;;;;10.48;6.70;;;5.60;99.90;;;;;;5011500;28;21106;-93
2023/05/04 00:22:45;;;;;;;11.43;7.30;;;5.30;99.90;;;;;;5010869;28;20434;-93
2023/05/04 00:25:10;;;;;;;13.82;7.18;;;6.30;99.90;;;;;;5014551;28;20401;-95
2023/05/04 00:27:36;;;;;;;11.40;7.07;;;5.30;99.90;;;;;;5014443;28;20414;-91
2023/05/04 00:30:02;;;;;;;13.38;7.93;;;5.50;99.90;;;;;;5014138;28;20419;-93
2023/05/04 00:32:29;;;;;;;16.38;7.80;;;5.30;99.90;;;;;;5013989;28;21193;-91
2023/05/04 00:34:55;;;;;;;12.88;7.40;;;5.40;99.90;;;;;;5014112;28;20409;-91
2023/05/04 00:37:21;;;;;;;13.68;7.95;;;5.30;99.90;;;;;;5014366;28;20420;-92
2023/05/04 00:39:46;;;;;;;11.87;7.50;;;4.80;99.90;;;;;;5013570;28;20448;-91
2023/05/04 00:42:12;;;;;;;14.17;8.23;;;5.20;99.90;;;;;;5014675;28;20874;-92
2023/05/04 00:44:40;;;;;;;13.80;7.70;;;5.30;99.90;;;;;;5013168;28;20967;-93
2023/05/04 00:47:07;;;;;;;13.65;8.00;;;5.20;99.90;;;;;;5014150;28;20512;-92
2023/05/04 00:49:34;;;;;;;12.13;7.73;;;5.20;99.90;;;;;;5013796;28;20473;-93
2023/05/04 00:52:02;;;;;;;12.53;7.87;;;5.40;99.90;;;;;;5013746;28;20458;-93
2023/05/04 00:54:28;;;;;;;10.50;7.43;;;5.10;99.90;;;;;;5013601;28;20390;-92
2023/05/04 00:56:54;;;;;;;12.32;8.30;;;5.30;99.90;;;;;;5013588;28;20398;-92
2023/05/04 00:59:19;;;;;;;11.68;8.18;;;5.20;99.90;;;;;;5014721;28;20414;-90
2023/05/04 01:01:45;;;;;;;12.38;8.05;;;5.20;99.90;;;;;;5013001;28;20744;-92
2023/05/04 01:04:11;;;;;;;13.40;7.85;;;5.10;99.90;;;;;;5013869;28;20430;-94
2023/05/04 01:07:04;;;;;;;13.30;7.95;;;5.10;99.90;;;;;;5013040;28;20456;-93
2023/05/04 01:09:56;;;;;;;11.88;7.22;;;5.00;99.90;;;;;;5013387;28;20420;-92
2023/05/04 01:12:43;;;;;;;13.27;8.43;;;5.00;99.90;;;;;;5014683;28;21019;-90
2023/05/04 01:15:11;;;;;;;13.30;8.23;;;5.00;99.90;;;;;;5013101;28;20418;-91
2023/05/04 01:17:37;;;;;;;12.38;8.07;;;5.00;99.90;;;;;;5013253;28;20410;-92
2023/05/04 01:20:03;;;;;;;13.55;8.52;;;5.30;99.90;;;;;;5013205;28;20460;-91
2023/05/04 01:22:28;;;;;;;12.80;9.02;;;5.00;99.90;;;;;;5013000;28;20412;-90
2023/05/04 01:24:54;;;;;;;12.80;7.70;;;5.40;99.90;;;;;;5012203;28;20405;-92
2023/05/04 01:27:25;;;;;;;11.98;7.57;;;5.10;99.90;;;;;;5011665;28;20409;-93
2023/05/04 01:30:23;;;;;;;13.85;8.10;;;5.00;99.90;;;;;;5012924;28;20413;-91
2023/05/04 01:32:50;;;;;;;14.30;9.05;;;4.90;99.90;;;;;;5012127;28;20420;-92
2023/05/04 01:35:16;;;;;;;14.13;8.60;;;5.00;99.90;;;;;;5012434;28;20844;-93
2023/05/04 01:37:41;;;;;;;13.05;8.70;;;5.20;99.90;;;;;;5012724;28;20408;-91
2023/05/04 01:40:08;;;;;;;12.48;8.35;;;5.30;99.90;;;;;;5012316;28;20508;-93
2023/05/04 01:42:34;;;;;;;14.68;8.88;;;4.90;99.90;;;;;;5013652;28;20405;-93
2023/05/04 01:44:59;;;;;;;14.17;8.37;;;5.10;99.90;;;;;;5012434;28;20459;-94
2023/05/04 01:47:25;;;;;;;13.17;8.37;;;4.80;99.90;;;;;;5013310;28;20978;-92
2023/05/04 01:49:51;;;;;;;13.63;8.15;;;5.00;99.90;;;;;;5012379;28;20406;-93
2023/05/04 01:52:16;;;;;;;13.73;8.45;;;4.60;99.90;;;;;;5012300;28;20401;-93
2023/05/04 01:54:42;;;;;;;12.48;8.25;;;4.80;99.90;;;;;;5012454;28;20394;-92
2023/05/04 01:57:08;;;;;;;12.60;8.40;;;5.00;99.90;;;;;;5012346;28;20421;-92
2023/05/04 01:59:34;;;;;;;16.63;8.53;;;5.00;99.90;;;;;;5013179;28;20524;-91
2023/05/04 02:01:59;;;;;;;13.60;8.85;;;5.30;99.90;;;;;;5012428;28;20405;-90
2023/05/04 02:04:25;;;;;;;12.85;9.20;;;4.80;99.90;;;;;;5012996;28;20449;-93
2023/05/04 02:06:51;;;;;;;13.18;8.77;;;4.90;99.90;;;;;;5011452;28;20417;-91
2023/05/04 02:09:16;;;;;;;11.97;8.77;;;5.00;99.90;;;;;;5012962;28;20897;-92
2023/05/04 02:11:42;;;;;;;14.80;9.67;;;5.50;99.90;;;;;;5012065;28;20472;-92
2023/05/04 02:14:08;;;;;;;13.18;8.75;;;5.00;99.90;;;;;;5012335;28;20536;-94
2023/05/04 02:16:34;;;;;;;15.15;9.07;;;4.80;99.90;;;;;;5011968;28;20484;-93
2023/05/04 02:19:00;;;;;;;14.47;9.00;;;5.00;99.90;;;;;;5012314;28;20817;-92
2023/05/04 02:21:26;;;;;;;14.07;9.23;;;5.20;99.90;;;;;;5012727;28;20484;-91
2023/05/04 02:23:51;;;;;;;13.32;9.00;;;5.10;99.90;;;;;;5011571;28;20480;-91
2023/05/04 02:26:17;;;;;;;13.85;9.07;;;4.80;99.90;;;;;;5012714;28;20417;-91
2023/05/04 02:28:43;;;;;;;11.70;9.07;;;4.70;99.90;;;;;;5012209;28;20398;-92
2023/05/04 02:31:08;;;;;;;15.10;9.90;;;5.10;99.90;;;;;;5012132;28;20923;-92
2023/05/04 02:33:34;;;;;;;13.05;9.32;;;5.00;99.90;;;;;;5012126;28;20822;-91
2023/05/04 02:36:00;;;;;;;14.48;9.18;;;5.10;99.90;;;;;;5012260;28;20393;-91
2023/05/04 02:38:26;;;;;;;15.23;9.30;;;4.80;99.90;;;;;;4999106;28;20411;-90
2023/05/04 02:40:51;;;;;;;13.95;9.32;;;4.80;99.90;;;;;;4991926;28;20806;-90
2023/05/04 02:43:17;;;;;;;15.13;9.50;;;4.80;99.90;;;;;;4993108;28;20411;-92
2023/05/04 02:45:43;;;;;;;13.77;9.20;;;4.50;99.90;;;;;;4991217;28;20457;-91
2023/05/04 02:48:09;;;;;;;14.95;8.90;;;5.30;99.90;;;;;;4992798;28;20874;-91
2023/05/04 02:50:34;;;;;;;12.45;8.65;;;4.70;99.90;;;;;;4992222;28;20417;-91
2023/05/04 02:53:00;;;;;;;13.13;8.90;;;4.80;99.90;;;;;;4991983;28;20483;-91
2023/05/04 02:55:25;;;;;;;13.07;9.17;;;4.60;99.90;;;;;;4991949;28;20454;-92
2023/05/04 02:57:51;;;;;;;13.97;9.13;;;4.70;99.90;;;;;;4991723;28;20414;-92
2023/05/04 03:00:17;;;;;;;13.93;9.25;;;5.10;99.90;;;;;;4992059;28;20431;-91
2023/05/04 03:02:43;;;;;;;13.90;9.50;;;4.80;99.90;;;;;;4991680;28;20403;-90
2023/05/04 03:05:08;;;;;;;14.33;9.10;;;5.00;99.90;;;;;;4992878;28;20419;-91
2023/05/04 03:07:34;;;;;;;15.93;9.13;;;4.70;99.90;;;;;;4991614;28;20497;-91
2023/05/04 03:10:00;;;;;;;13.33;8.83;;;5.20;99.90;;;;;;4991922;28;20403;-91
2023/05/04 03:12:26;;;;;;;14.77;9.03;;;4.80;99.90;;;;;;4992002;28;20426;-92
2023/05/04 03:14:52;;;;;;;15.43;9.03;;;4.90;99.90;;;;;;4992237;28;20414;-91
2023/05/04 03:17:17;;;;;;;14.15;8.90;;;4.90;99.90;;;;;;4991450;28;20411;-94
2023/05/04 03:19:43;;;;;;;12.75;8.57;;;5.40;99.90;;;;;;4991923;28;20919;-92
2023/05/04 03:22:09;;;;;;;12.52;8.15;;;4.80;99.90;;;;;;4992314;28;20403;-91
2023/05/04 03:24:36;;;;;;;14.13;9.07;;;5.00;99.90;;;;;;4991876;28;20410;-90
2023/05/04 03:27:02;;;;;;;16.08;9.93;;;4.90;99.90;;;;;;4992196;28;20490;-92
2023/05/04 03:29:28;;;;;;;13.02;8.88;;;4.70;99.90;;;;;;4991923;28;20447;-92
2023/05/04 03:31:54;;;;;;;14.02;8.57;;;5.10;99.90;;;;;;4991733;28;20439;-94
2023/05/04 03:34:20;;;;;;;14.05;8.55;;;5.00;99.90;;;;;;4991946;28;21292;-92
2023/05/04 03:36:47;;;;;;;12.52;9.00;;;5.00;99.90;;;;;;4991166;28;21050;-93
2023/05/04 03:39:13;;;;;;;13.15;9.50;;;4.90;99.90;;;;;;4991220;28;20407;-93
2023/05/04 03:41:39;;;;;;;14.30;9.60;;;5.30;99.90;;;;;;4991291;28;20508;-92
2023/05/04 03:44:05;;;;;;;13.80;8.87;;;5.30;99.90;;;;;;4992564;28;20497;-91
2023/05/04 03:46:31;;;;;;;13.20;9.80;;;5.60;99.90;;;;;;4991752;28;20419;-93
2023/05/04 03:48:56;;;;;;;14.10;9.40;;;5.00;99.90;;;;;;4992282;28;20411;-92
2023/05/04 03:51:22;;;;;;;14.15;9.82;;;5.20;99.90;;;;;;4991206;28;20981;-92
2023/05/04 03:53:48;;;;;;;14.82;9.70;;;4.90;99.90;;;;;;4991469;28;20405;-93
2023/05/04 03:56:13;;;;;;;12.70;9.30;;;4.90;99.90;;;;;;4991623;28;20415;-91
2023/05/04 03:58:39;;;;;;;17.53;10.70;;;5.30;99.90;;;;;;4993369;28;20407;-94
2023/05/04 04:01:05;;;;;;;15.33;10.30;;;5.20;99.90;;;;;;4995307;28;20498;-93
2023/05/04 04:03:31;;;;;;;15.65;9.90;;;5.40;99.90;;;;;;4995146;28;20418;-92
2023/05/04 04:05:58;;;;;;;15.77;9.93;;;5.30;99.90;;;;;;4995551;28;20411;-92
2023/05/04 04:08:23;;;;;;;14.50;11.15;;;5.40;99.90;;;;;;4994869;28;20429;-92
2023/05/04 04:10:49;;;;;;;15.65;10.20;;;5.10;99.90;;;;;;4994831;28;20402;-90
2023/05/04 04:13:14;;;;;;;16.60;10.33;;;5.40;99.90;;;;;;4994936;28;20770;-92
2023/05/04 04:15:43;;;;;;;15.33;9.77;;;5.40;99.90;;;;;;4994857;28;20449;-92
2023/05/04 04:18:10;;;;;;;13.30;9.93;;;5.10;99.90;;;;;;4995159;28;20454;-93
2023/05/04 04:20:36;;;;;;;16.10;10.93;;;5.20;99.90;;;;;;4994539;28;20426;-92
2023/05/04 04:23:02;;;;;;;14.30;9.97;;;5.10;99.90;;;;;;4995232;28;20445;-93
2023/05/04 04:25:28;;;;;;;16.33;10.48;;;5.20;99.90;;;;;;4994523;28;20490;-92
2023/05/04 04:27:54;;;;;;;16.40;10.53;;;5.20;99.90;;;;;;4994993;28;20407;-93
2023/05/04 04:30:20;;;;;;;16.47;10.30;;;5.40;99.90;;;;;;4994441;28;21105;-92
2023/05/04 04:32:46;;;;;;;18.13;10.73;;;5.20;99.90;;;;;;4994283;28;20478;-93
2023/05/04 04:35:13;;;;;;;14.02;9.68;;;5.20;99.90;;;;;;4994765;28;20496;-92
2023/05/04 04:37:38;;;;;;;13.90;9.68;;;5.30;99.90;;;;;;4993976;28;20426;-94
2023/05/04 04:40:06;;;;;;;16.95;10.45;;;5.30;99.90;;;;;;4994598;28;20423;-93
2023/05/04 04:42:32;;;;;;;16.23;10.40;;;5.20;99.90;;;;;;4994019;28;20399;-93
2023/05/04 04:44:58;;;;;;;13.52;9.80;;;5.40;99.90;;;;;;4994888;28;20410;-93
2023/05/04 04:47:24;;;;;;;15.27;10.57;;;5.30;99.90;;;;;;4994016;28;20410;-93
2023/05/04 04:49:50;;;;;;;14.75;10.38;;;5.40;99.90;;;;;;4995018;28;20403;-93
2023/05/04 04:52:16;;;;;;;14.70;10.33;;;5.50;99.90;;;;;;4993870;28;20422;-92
2023/05/04 04:54:44;;;;;;;17.23;10.30;;;5.50;99.90;;;;;;4993425;28;20944;-92
2023/05/04 04:57:09;;;;;;;16.27;10.47;;;5.70;99.90;;;;;;4993902;28;20419;-93
2023/05/04 04:59:36;;;;;;;17.67;10.37;;;6.20;99.90;;;;;;4993809;28;20484;-93
2023/05/04 05:02:02;;;;;;;18.77;11.17;;;5.80;99.90;;;;;;4994546;28;20426;-95
2023/05/04 05:04:28;;;;;;;17.00;10.95;;;6.30;99.90;;;;;;4993594;28;20423;-92
2023/05/04 05:06:54;;;;;;;17.07;11.13;;;5.80;99.90;;;;;;4994062;28;20921;-93
2023/05/04 05:09:20;;;;;;;16.90;10.70;;;5.90;99.90;;;;;;4993188;28;20453;-92
2023/05/04 05:11:46;;;;;;;14.38;10.13;;;6.00;99.90;;;;;;4994661;28;20412;-94
2023/05/04 05:14:11;;;;;;;16.87;10.80;;;6.10;99.90;;;;;;4994166;28;20898;-93
2023/05/04 05:16:37;;;;;;;16.17;10.90;;;6.00;99.90;;;;;;4990163;28;20403;-94
2023/05/04 05:19:03;;;;;;;15.18;11.10;;;6.20;99.90;;;;;;4993261;28;20461;-94
2023/05/04 05:21:29;;;;;;;15.13;10.60;;;6.10;99.90;;;;;;5012509;28;20554;-93
2023/05/04 05:23:55;;;;;;;14.77;11.17;;;6.50;99.90;;;;;;5013282;28;20907;-93
2023/05/04 05:26:21;;;;;;;17.13;11.07;;;6.30;99.90;;;;;;5011986;28;20413;-91
2023/05/04 05:28:46;;;;;;;16.80;11.60;;;6.30;99.90;;;;;;5013257;28;20796;-93
2023/05/04 05:31:12;;;;;;;17.27;10.67;;;6.40;99.90;;;;;;5012811;28;20413;-93
2023/05/04 05:33:39;;;;;;;17.27;10.88;;;7.20;99.90;;;;;;5012806;28;20761;-92
2023/05/04 05:36:04;;;;;;;15.32;10.68;;;6.50;99.90;;;;;;5008321;28;20803;-95
2023/05/04 05:38:31;;;;;;;15.50;10.05;;;6.70;99.90;;;;;;5001256;28;20410;-93
2023/05/04 05:40:59;;;;;;;16.08;10.02;;;7.00;99.90;;;;;;5001941;28;20468;-92
2023/05/04 05:43:25;;;;;;;13.97;9.97;;;6.80;99.90;;;;;;4993761;28;20985;-92
2023/05/04 05:45:51;;;;;;;17.17;10.40;;;6.90;99.90;;;;;;4994009;28;20411;-92
2023/05/04 05:48:16;;;;;;;20.17;9.70;;;7.30;99.90;;;;;;4992735;28;20403;-93
2023/05/04 05:50:42;;;;;;;17.08;10.32;;;7.40;99.90;;;;;;4993030;28;20411;-91
2023/05/04 05:53:08;;;;;;;18.27;11.47;;;7.60;99.90;;;;;;4992767;28;20403;-93
2023/05/04 05:55:33;;;;;;;17.63;11.37;;;7.50;99.90;;;;;;4992913;28;20489;-94
2023/05/04 05:58:01;;;;;;;17.52;11.93;;;7.70;99.90;;;;;;4992871;28;20410;-94
2023/05/04 06:00:27;;;;;;;17.90;11.35;;;7.80;99.90;;;;;;4992448;28;20435;-95
2023/05/04 06:02:54;;;;;;;19.50;10.30;;;8.20;99.90;;;;;;4992877;28;20406;-94
2023/05/04 06:05:20;;;;;;;17.52;10.45;;;8.20;99.90;;;;;;4991646;28;20774;-95
2023/05/04 06:07:46;;;;;;;14.82;9.50;;;8.40;99.90;;;;;;5008575;28;20422;-93
2023/05/04 06:10:11;;;;;;;15.87;9.97;;;8.20;99.90;;;;;;4991587;28;20419;-94
2023/05/04 06:12:37;;;;;;;15.57;9.97;;;8.30;99.90;;;;;;4992646;28;20434;-95
2023/05/04 06:15:03;;;;;;;12.75;8.75;;;8.40;99.90;;;;;;4991401;28;20407;-93
2023/05/04 06:17:29;;;;;;;12.73;8.40;;;8.50;99.90;;;;;;4991832;28;20469;-91
2023/05/04 06:19:54;;;;;;;15.05;8.70;;;8.50;99.90;;;;;;4991959;28;20435;-92
2023/05/04 06:22:23;;;;;;;14.50;8.10;;;8.90;99.90;;;;;;4991305;28;20405;-95
2023/05/04 06:24:49;;;;;;;11.52;7.68;;;8.80;99.90;;;;;;4992836;28;20405;-94
2023/05/04 06:27:15;;;;;;;12.35;8.20;;;8.80;99.90;;;;;;4992154;28;20415;-94
2023/05/04 06:29:41;;;;;;;11.63;8.18;;;8.90;99.90;;;;;;4991804;28;20411;-93
2023/05/04 06:32:08;;;;;;;13.60;8.30;;;9.40;99.90;;;;;;4991544;28;20856;-93
2023/05/04 06:34:34;;;;;;;11.75;7.63;;;9.40;99.90;;;;;;4991324;28;20407;-92
2023/05/04 06:37:00;;;;;;;12.13;7.70;;;9.70;99.90;;;;;;4991259;28;20427;-94
2023/05/04 06:39:26;;;;;;;14.23;8.07;;;9.50;99.90;;;;;;4992265;28;20559;-93
2023/05/04 06:41:54;;;;;;;11.88;7.70;;;9.50;99.90;;;;;;4993062;28;20411;-93
2023/05/04 06:44:21;;;;;;;15.10;7.70;;;9.90;99.90;;;;;;4990678;28;20509;-94
2023/05/04 06:46:47;;;;;;;13.80;7.45;;;9.60;99.90;;;;;;4992388;28;20401;-93
2023/05/04 06:49:12;;;;;;;11.68;7.57;;;10.50;99.90;;;;;;4991389;28;20931;-94
2023/05/04 06:51:38;;;;;;;12.40;7.43;;;10.10;99.90;;;;;;4991556;28;20418;-94
2023/05/04 06:54:07;;;;;;;11.00;7.13;;;10.40;99.90;;;;;;4991688;28;20426;-94
2023/05/04 06:56:33;;;;;;;10.60;6.80;;;10.40;99.90;;;;;;4991625;28;20485;-93
2023/05/04 06:58:59;;;;;;;13.07;7.13;;;10.50;99.90;;;;;;4991605;28;20909;-94
2023/05/04 07:01:24;;;;;;;12.37;7.27;;;11.10;99.90;;;;;;4991432;28;20768;-93
2023/05/04 07:03:53;;;;;;;9.82;6.63;;;10.80;99.90;;;;;;4992878;28;20450;-95
2023/05/04 07:06:19;;;;;;;10.88;7.20;;;11.00;99.90;;;;;;4978461;28;20508;-95
2023/05/04 07:08:47;;;;;;;10.55;7.07;;;11.00;99.90;;;;;;4973295;28;20922;-95
2023/05/04 07:11:13;;;;;;;9.95;6.90;;;11.00;99.90;;;;;;4972623;28;20760;-93
2023/05/04 07:13:39;;;;;;;12.73;7.32;;;11.00;99.90;;;;;;4973628;28;20404;-93
2023/05/04 07:16:08;;;;;;;12.95;7.38;;;10.90;99.90;;;;;;4973573;28;20789;-96
2023/05/04 07:18:33;;;;;;;11.47;7.13;;;11.20;99.90;;;;;;4971355;28;20935;-94
2023/05/04 07:20:59;;;;;;;10.40;7.13;;;11.10;99.90;;;;;;4992744;28;20431;-93
2023/05/04 07:23:52;;;;;;;10.20;7.25;;;11.00;99.90;;;;;;4994296;28;20451;-96
2023/05/04 07:26:17;;;;;;;11.98;7.07;;;11.30;99.90;;;;;;5008629;28;20921;-95
2023/05/04 07:28:55;;;;;;;11.55;7.47;;;11.40;99.90;;;;;;4992784;28;20415;-96
2023/05/04 07:31:37;;;;;;;;;;;;;;;;;;;;;
2023/05/04 07:34:22;;;;;;;11.18;7.80;;;11.80;99.90;;;;;;5028464;28;20770;-94
2023/05/04 07:36:48;;;;;;;10.63;7.63;;;11.50;99.90;;;;;;4996316;28;20403;-94
2023/05/04 07:39:15;;;;;;;9.17;7.30;;;11.50;99.90;;;;;;4993295;28;20489;-92
2023/05/04 07:41:41;;;;;;;9.85;7.13;;;11.90;99.90;;;;;;4995526;28;20438;-94
2023/05/04 07:44:07;;;;;;;12.38;7.20;;;11.90;99.90;;;;;;4995175;28;20855;-94
2023/05/04 07:46:38;;;;;;;10.13;7.28;;;12.20;99.90;;;;;;4995101;28;20416;-94
2023/05/04 07:49:07;;;;;;;10.27;7.38;;;12.40;99.90;;;;;;4995398;28;20415;-94
2023/05/04 07:51:33;;;;;;;11.35;7.00;;;12.40;99.90;;;;;;4994921;28;20407;-92
2023/05/04 07:53:58;;;;;;;11.20;7.37;;;12.70;99.90;;;;;;4995487;28;20457;-93
2023/05/04 07:56:27;;;;;;;10.60;7.05;;;12.60;99.90;;;;;;4993759;28;20415;-95
2023/05/04 07:58:53;;;;;;;11.23;7.35;;;12.90;99.90;;;;;;4995601;28;20850;-94
2023/05/04 08:01:19;;;;;;;10.15;6.65;;;12.80;99.90;;;;;;4994165;28;20431;-94
2023/05/04 08:03:45;;;;;;;10.45;7.07;;;12.90;99.90;;;;;;4995121;28;20438;-95
2023/05/04 08:06:11;;;;;;;10.93;6.90;;;12.90;99.90;;;;;;5007261;28;20900;-93
2023/05/04 08:08:37;;;;;;;12.00;7.32;;;13.30;99.90;;;;;;5014064;28;20904;-94
2023/05/04 08:11:03;;;;;;;11.10;7.28;;;13.20;99.90;;;;;;5013898;28;20415;-94
2023/05/04 08:13:29;;;;;;;11.18;7.13;;;13.40;99.90;;;;;;5013443;28;20783;-94
2023/05/04 08:16:00;;;;;;;12.20;6.67;;;13.80;99.90;;;;;;5014693;28;20472;-94
2023/05/04 08:18:26;;;;;;;10.95;7.13;;;13.50;99.90;;;;;;5013282;28;20469;-93
2023/05/04 08:20:55;;;;;;;10.30;6.55;;;13.80;99.90;;;;;;5010143;28;20457;-93
2023/05/04 08:23:21;;;;;;;9.75;6.80;;;13.80;99.90;;;;;;5012393;28;20417;-93
2023/05/04 08:25:49;;;;;;;9.53;6.60;;;14.20;99.90;;;;;;5013362;28;20406;-93
2023/05/04 08:28:15;;;;;;;9.48;6.13;;;14.10;99.90;;;;;;5012584;28;20492;-93
2023/05/04 08:30:40;;;;;;;10.50;6.53;;;14.70;99.90;;;;;;5013734;28;20500;-91
2023/05/04 08:33:09;;;;;;;10.48;6.32;;;14.70;99.90;;;;;;5014057;28;20417;-94
2023/05/04 08:35:36;;;;;;;9.68;5.70;;;15.20;99.40;;;;;;5012543;28;20425;-94
2023/05/04 08:38:06;;;;;;;12.60;6.30;;;14.90;95.10;;;;;;5014737;28;21023;-92
2023/05/04 08:40:32;;;;;;;10.00;6.28;;;14.70;96.40;;;;;;5007671;28;20483;-93
2023/05/04 08:42:58;;;;;;;10.15;6.25;;;14.60;94.60;;;;;;5009934;28;20408;-92
2023/05/04 08:45:24;;;;;;;8.65;5.50;;;15.20;94.50;;;;;;5009022;28;20506;-93
2023/05/04 08:47:50;;;;;;;9.45;5.65;;;14.90;91.50;;;;;;5010012;28;20433;-92
2023/05/04 08:50:18;;;;;;;8.48;5.50;;;15.30;92.60;;;;;;5010228;28;20473;-94
2023/05/04 08:52:48;;;;;;;9.73;5.70;;;15.10;91.10;;;;;;5010508;28;20442;-92
2023/05/04 08:55:15;;;;;;;9.10;5.40;;;15.80;92.00;;;;;;5010215;28;20426;-93
2023/05/04 08:57:43;;;;;;;8.25;5.55;;;15.50;90.00;;;;;;5009731;28;20411;-92
2023/05/04 09:00:11;;;;;;;9.00;5.67;;;15.10;89.50;;;;;;5012623;28;20435;-93
2023/05/04 09:02:37;;;;;;;9.48;5.88;;;15.50;89.10;;;;;;5010249;28;20593;-93
2023/05/04 09:05:06;;;;;;;8.80;5.28;;;16.00;91.50;;;;;;5013728;28;20510;-94
2023/05/04 09:07:35;;;;;;;8.70;5.60;;;15.80;90.90;;;;;;4994393;28;20414;-93
2023/05/04 09:10:02;;;;;;;7.10;5.18;;;16.00;90.80;;;;;;5010772;28;20498;-93
2023/05/04 09:12:28;;;;;;;8.30;5.60;;;15.90;85.00;;;;;;5010281;28;20490;-92
2023/05/04 09:14:53;;;;;;;10.13;5.50;;;15.80;91.20;;;;;;5009312;28;21104;-94
2023/05/04 09:17:28;;;;;;;7.57;5.22;;;16.10;83.40;;;;;;5009305;28;20403;-94
2023/05/04 09:20:04;;;;;;;7.55;5.30;;;15.90;85.80;;;;;;5013199;28;20431;-96
2023/05/04 09:22:36;;;;;;;10.32;5.43;;;16.00;81.60;;;;;;4999286;28;20449;-95
2023/05/04 09:25:10;;;;;;;8.88;5.47;;;16.70;87.90;;;;;;5010526;28;20549;-92
2023/05/04 09:27:40;;;;;;;7.90;5.50;;;16.30;82.30;;;;;;4993758;28;20473;-93
2023/05/04 09:30:07;;;;;;;7.45;5.35;;;16.40;89.60;;;;;;4993707;28;20502;-94
2023/05/04 09:32:47;;;;;;;9.55;5.95;;;16.60;74.20;;;;;;4993459;28;20469;-94
2023/05/04 09:35:13;;;;;;;8.35;5.35;;;16.70;78.40;;;;;;4992939;28;20619;-93
2023/05/04 09:37:45;;;;;;;9.98;5.75;;;16.70;76.90;;;;;;4993132;28;20410;-93
2023/05/04 09:40:12;;;;;;;7.93;5.30;;;16.90;77.30;;;;;;5008925;28;20925;-94
2023/05/04 09:42:41;;;;;;;7.68;5.05;;;17.10;77.50;;;;;;5008836;28;20461;-95
2023/05/04 09:45:09;;;;;;;7.28;5.07;;;17.30;73.30;;;;;;5013091;28;20404;-95
2023/05/04 09:47:40;;;;;;;8.52;5.72;;;17.30;66.30;;;;;;5007213;28;20466;-95
2023/05/04 09:50:16;;;;;;;9.07;4.80;;;17.80;70.40;;;;;;5012884;28;20413;-94
2023/05/04 09:52:43;;;;;;;10.05;5.53;;;17.40;64.00;;;;;;5011222;28;20426;-95
2023/05/04 09:55:16;;;;;;;6.47;5.10;;;17.70;67.70;;;;;;5011567;28;20402;-95
2023/05/04 09:57:43;;;;;;;6.93;4.90;;;18.00;63.20;;;;;;5011310;28;20503;-94
2023/05/04 10:00:15;;;;;;;8.02;4.63;;;17.50;59.30;;;;;;4992659;28;20840;-92
2023/05/04 10:02:45;;;;;;;7.27;5.13;;;17.40;61.10;;;;;;4992665;28;20403;-94
2023/05/04 10:05:15;;;;;;;10.18;5.28;;;17.40;59.80;;;;;;4991248;28;20421;-94
2023/05/04 10:07:42;;;;;;;7.75;4.90;;;17.90;61.00;;;;;;4993776;28;21133;-95
2023/05/04 10:10:10;;;;;;;8.48;5.40;;;17.90;60.30;;;;;;4991620;28;20411;-93
2023/05/04 10:12:36;;;;;;;8.60;5.78;;;17.80;61.30;;;;;;4996598;28;20399;-94
2023/05/04 10:15:25;;;;;;;8.80;5.30;;;18.00;65.30;;;;;;4995228;28;20470;-94
2023/05/04 10:18:17;;;;;;;8.80;5.03;;;18.40;62.00;;;;;;4917998;29;20426;-95
2023/05/04 10:21:03;;;;;;;7.75;5.07;;;18.80;57.80;;;;;;4992593;28;20476;-94
2023/05/04 10:23:41;;;;;;;7.55;4.75;;;18.80;57.00;;;;;;4990968;28;20469;-95
2023/05/04 10:26:32;;;;;;;7.78;4.82;;;19.30;55.60;;;;;;4993214;28;20794;-94
2023/05/04 10:29:20;;;;;;;8.00;4.72;;;19.20;55.00;;;;;;4977374;28;20419;-94
2023/05/04 10:31:49;;;;;;;7.43;5.28;;;19.40;54.60;;;;;;4994845;28;20501;-93
2023/05/04 10:34:56;;;;;;;8.13;4.70;;;19.70;53.20;;;;;;4991255;28;20430;-94
2023/05/04 10:37:22;;;;;;;6.75;4.32;;;19.90;52.40;;;;;;4996504;28;20484;-92
2023/05/04 10:39:57;;;;;;;5.95;3.30;;;20.60;52.60;;;;;;5013175;28;20429;-94
2023/05/04 10:42:23;;;;;;;6.72;3.40;;;20.40;48.50;;;;;;5010718;28;20397;-94
2023/05/04 10:44:55;;;;;;;5.83;3.30;;;20.90;47.40;;;;;;5012013;28;20416;-96
2023/05/04 10:47:32;;;;;;;6.70;3.22;;;20.40;47.90;;;;;;5011809;28;20414;-94
2023/05/04 10:50:06;;;;;;;6.97;3.60;;;20.80;48.90;;;;;;5009779;28;20463;-93
2023/05/04 10:52:45;;;;;;;7.10;3.57;;;20.90;50.40;;;;;;5012742;28;20421;-93
2023/05/04 10:55:14;;;;;;;6.93;3.72;;;21.50;48.20;;;;;;5011007;28;20416;-92
2023/05/04 10:57:51;;;;;;;7.13;3.47;;;21.70;46.00;;;;;;5011887;28;20413;-95
2023/05/04 11:00:18;;;;;;;6.33;3.37;;;21.90;44.20;;;;;;5010463;28;20539;-95
2023/05/04 11:02:47;;;;;;;5.78;3.30;;;22.00;46.00;;;;;;5012529;28;20815;-94
2023/05/04 11:05:18;;;;;;;4.47;2.92;;;22.10;43.20;;;;;;5011059;28;20579;-93
2023/05/04 11:07:51;;;;;;;7.53;3.30;;;22.30;42.70;;;;;;5011026;28;20413;-94
2023/05/04 11:10:25;;;;;;;5.20;3.05;;;22.50;43.50;;;;;;5012839;28;20912;-94
2023/05/04 11:12:51;;;;;;;5.35;3.33;;;22.60;42.90;;;;;;5011369;28;20421;-96
2023/05/04 11:15:20;;;;;;;5.80;3.30;;;22.80;42.80;;;;;;4993732;28;20407;-95
2023/05/04 11:17:49;;;;;;;4.53;3.22;;;23.30;44.20;;;;;;4990848;28;20403;-96
2023/05/04 11:20:25;;;;;;;4.93;3.40;;;23.40;41.80;;;;;;4989915;28;20414;-93
2023/05/04 11:22:52;;;;;;;5.30;3.35;;;23.50;41.60;;;;;;4990990;28;21019;-94
2023/05/04 11:25:29;;;;;;;5.57;3.42;;;23.80;42.00;;;;;;4992680;28;20410;-95
2023/05/04 11:27:59;;;;;;;5.43;3.30;;;23.70;39.50;;;;;;4993354;28;20407;-96
2023/05/04 11:30:33;;;;;;;6.75;3.40;;;23.60;41.10;;;;;;4992321;28;20490;-94
2023/05/04 11:33:12;;;;;;;6.07;3.70;;;23.70;40.70;;;;;;4994284;28;20873;-93
2023/05/04 11:35:39;;;;;;;5.60;3.60;;;23.70;39.60;;;;;;4990609;28;20439;-94
2023/05/04 11:38:09;;;;;;;6.68;3.88;;;23.70;40.60;;;;;;4992886;28;20454;-96
2023/05/04 11:40:47;;;;;;;5.13;3.65;;;23.80;40.50;;;;;;4992807;28;20787;-96
2023/05/04 11:43:13;;;;;;;5.55;4.00;;;24.00;39.70;;;;;;4994052;28;20414;-95
2023/05/04 11:45:40;;;;;;;6.63;4.18;;;24.20;40.60;;;;;;4992553;28;20403;-95
2023/05/04 11:48:07;;;;;;;6.68;4.47;;;24.70;41.20;;;;;;4990967;28;20913;-95
2023/05/04 11:50:33;;;;;;;5.90;3.90;;;24.80;39.00;;;;;;4992257;28;20492;-93
2023/05/04 11:53:08;;;;;;;7.53;4.00;;;24.60;40.50;;;;;;4989553;28;20411;-95
2023/05/04 11:55:38;;;;;;;7.47;4.00;;;24.40;39.40;;;;;;4992353;28;20441;-94
2023/05/04 11:58:12;;;;;;;6.38;3.88;;;24.60;41.30;;;;;;4990223;28;20493;-94
2023/05/04 12:00:43;;;;;;;5.93;4.28;;;24.60;39.50;;;;;;4991829;28;20427;-94
2023/05/04 12:03:16;;;;;;;6.43;4.03;;;24.60;39.20;;;;;;4991805;28;20450;-93
2023/05/04 12:05:50;;;;;;;5.13;3.95;;;24.70;39.10;;;;;;4994383;28;20415;-91
2023/05/04 12:08:30;;;;;;;6.60;4.13;;;24.90;39.20;;;;;;4993395;28;20411;-93
2023/05/04 12:11:16;;;;;;;7.97;3.80;;;25.10;38.40;;;;;;4990035;28;20776;-92
2023/05/04 12:13:46;;;;;;;5.57;3.80;;;25.40;39.30;;;;;;4988447;28;20415;-93
2023/05/04 12:16:12;;;;;;;6.47;4.03;;;25.60;39.00;;;;;;4991375;28;20805;-90
2023/05/04 12:18:38;;;;;;;7.25;4.05;;;25.90;39.40;;;;;;5006936;28;20498;-92
2023/05/04 12:21:18;;;;;;;6.22;4.20;;;26.20;37.80;;;;;;5011132;28;20439;-95
2023/05/04 12:23:45;;;;;;;6.03;3.90;;;26.20;37.80;;;;;;4995274;28;20414;-91
2023/05/04 12:26:11;;;;;;;6.03;4.00;;;26.40;37.40;;;;;;5013657;28;20532;-92
2023/05/04 12:28:38;;;;;;;4.93;3.60;;;26.70;36.80;;;;;;5009902;28;20800;-91
2023/05/04 12:31:05;;;;;;;6.20;4.22;;;26.90;37.10;;;;;;5011620;28;20411;-95
2023/05/04 12:33:34;;;;;;;6.78;4.13;;;27.20;35.30;;;;;;4994313;28;20407;-94
2023/05/04 12:36:04;;;;;;;6.65;3.95;;;27.30;35.50;;;;;;5011924;28;20411;-92
2023/05/04 12:38:30;;;;;;;5.55;4.00;;;27.30;34.80;;;;;;4987075;28;20411;-92
2023/05/04 12:40:59;;;;;;;19.67;17.67;;;27.50;35.60;;;;;;5009196;28;20840;-93
2023/05/04 12:43:25;;;;;;;5.43;4.05;;;27.50;36.60;;;;;;4994154;28;20575;-91
2023/05/04 12:45:52;;;;;;;6.47;3.80;;;27.50;33.90;;;;;;5010029;28;21260;-90
2023/05/04 12:48:21;;;;;;;6.30;3.93;;;27.30;33.60;;;;;;5007221;28;20473;-92
2023/05/04 12:50:48;;;;;;;5.43;4.00;;;27.30;34.40;;;;;;5012965;28;20401;-92